»·PEaware :: SKY66 KSBP-KOAR

SKY66 :: KSBP-KOAR

FLIGHT INFORMATION

Flight Status: Arrived
Operator:
Sky High Charters
More flights by this operator :: More flights under this callsign
Pilot: Tony P. (19036)
Aircraft: CESSNA 310
(C310)
More flights by this aircraft type
Origin: KSBP San Luis Co Regl
United States
Destination: KOAR Marina
United States
More flights between these airports :: More routes between these airports
Route: +CREPE3 PRB V248 SARDO ZURET
File this flight plan on PilotEdge
Remarks: Skyhigh scenario 4 - Leg 1
Altitude:
(Current/Filed)
10,000ft
Speed:
(Current/Filed)
190kts
Departed: 02-Feb-19 05:42 PM
Arrived: 02-Feb-19 06:20 PM
Distance/Time
Traveled:
102nm/0:38
Distance/Time
To Go:
Arrived

Flight Plot

Page will automatically refresh every two minutes.

Flight plan parsing failed; only flown route is shown


Map Options




Map Legend


Flown Route
Filed Route
Departure Airport
Arrival Airport
Navaid (VOR, NDB)
Fix

Horizontal Profiles

Position Reports

Time Latitude Longitude Heading Altitude Ground
Speed
02-Feb-19 16:54 35.238241 -120.639983 308 215ft 0kts
02-Feb-19 16:55 35.238241 -120.639983 308 216ft 0kts
02-Feb-19 16:56 35.238241 -120.639983 308 216ft 0kts
02-Feb-19 16:57 35.238241 -120.639983 308 216ft 0kts
02-Feb-19 16:58 35.238241 -120.639983 308 216ft 0kts
02-Feb-19 16:59 35.238241 -120.639983 308 216ft 0kts
02-Feb-19 17:00 35.238241 -120.639983 308 216ft 0kts
02-Feb-19 17:01 35.238241 -120.639983 308 216ft 0kts
02-Feb-19 17:02 35.238241 -120.639983 308 216ft 0kts
02-Feb-19 17:03 35.238241 -120.639983 308 216ft 0kts
02-Feb-19 17:04 35.238241 -120.639983 308 216ft 0kts
02-Feb-19 17:05 35.238241 -120.639983 308 216ft 0kts
02-Feb-19 17:06 35.238241 -120.639983 308 216ft 0kts
02-Feb-19 17:07 35.238241 -120.639983 308 216ft 0kts
02-Feb-19 17:08 35.238241 -120.639983 308 216ft 0kts
02-Feb-19 17:09 35.238241 -120.639983 308 216ft 0kts
02-Feb-19 17:10 35.238241 -120.639983 308 216ft 0kts
02-Feb-19 17:11 35.238241 -120.639983 308 216ft 0kts
02-Feb-19 17:12 35.238241 -120.639983 308 216ft 0kts
02-Feb-19 17:13 35.238241 -120.639983 308 216ft 0kts
02-Feb-19 17:14 35.238241 -120.639983 308 216ft 0kts
02-Feb-19 17:15 35.238241 -120.639983 308 216ft 0kts
02-Feb-19 17:16 35.238241 -120.639983 307 216ft 0kts
02-Feb-19 17:17 35.238241 -120.639983 307 216ft 0kts
02-Feb-19 17:18 35.238241 -120.639983 307 216ft 0kts
02-Feb-19 17:19 35.238241 -120.639983 308 216ft 0kts
02-Feb-19 17:20 35.238241 -120.639983 307 216ft 0kts
02-Feb-19 17:21 35.238241 -120.639983 307 216ft 0kts
02-Feb-19 17:22 35.238241 -120.639983 307 216ft 0kts
02-Feb-19 17:23 35.238241 -120.639983 307 216ft 0kts
02-Feb-19 17:24 35.238241 -120.639983 307 216ft 0kts
02-Feb-19 17:25 35.238003 -120.640055 148 216ft 5kts
02-Feb-19 17:26 35.235458 -120.635802 124 216ft 19kts
02-Feb-19 17:27 35.233223 -120.632306 214 215ft 0kts
02-Feb-19 17:28 35.233223 -120.632306 214 215ft 0kts
02-Feb-19 17:29 35.233223 -120.632306 214 215ft 0kts
02-Feb-19 17:30 35.233223 -120.632306 214 215ft 0kts
02-Feb-19 17:31 35.233223 -120.632306 214 215ft 0kts
02-Feb-19 17:32 35.233223 -120.632306 214 215ft 0kts
02-Feb-19 17:33 35.233223 -120.632306 214 215ft 0kts
02-Feb-19 17:34 35.233223 -120.632306 214 215ft 0kts
02-Feb-19 17:35 35.233223 -120.632306 214 215ft 0kts
02-Feb-19 17:36 35.233223 -120.632306 214 215ft 0kts
02-Feb-19 17:37 35.233223 -120.632306 214 215ft 0kts
02-Feb-19 17:38 35.233223 -120.632306 214 215ft 0kts
02-Feb-19 17:39 35.233223 -120.632306 214 215ft 0kts
02-Feb-19 17:40 35.232797 -120.632964 285 216ft 16kts
02-Feb-19 17:41 35.248182 -120.660727 287 1473ft 117kts
02-Feb-19 17:42 35.266746 -120.701449 291 3005ft 152kts
02-Feb-19 17:43 35.291753 -120.740305 296 5295ft 140kts
02-Feb-19 17:44 35.315391 -120.782196 294 7122ft 152kts
02-Feb-19 17:45 35.346526 -120.831241 301 7627ft 195kts
02-Feb-19 17:46 35.401253 -120.835721 31 8008ft 236kts
02-Feb-19 17:47 35.458368 -120.791952 29 8116ft 239kts
02-Feb-19 17:48 35.515014 -120.747006 30 8621ft 241kts
02-Feb-19 17:49 35.569444 -120.705130 30 9591ft 222kts
02-Feb-19 17:50 35.623513 -120.663226 31 10004ft 241kts
02-Feb-19 17:51 35.684638 -120.631927 340 9996ft 235kts
02-Feb-19 17:52 35.746827 -120.655412 335 10003ft 234kts
02-Feb-19 17:53 35.808510 -120.679157 334 10002ft 229kts
02-Feb-19 17:54 35.870047 -120.700987 336 9997ft 230kts
02-Feb-19 17:55 35.930129 -120.727238 331 9985ft 227kts
02-Feb-19 17:56 35.989692 -120.753275 333 9971ft 228kts
02-Feb-19 17:57 36.050473 -120.777916 335 9968ft 230kts
02-Feb-19 17:58 36.103121 -120.815041 305 9963ft 212kts
02-Feb-19 18:00 36.145365 -120.866760 306 9961ft 208kts
02-Feb-19 18:01 36.186418 -120.917666 305 9961ft 208kts
02-Feb-19 18:02 36.225526 -120.969184 303 9959ft 206kts
02-Feb-19 18:03 36.265325 -121.020828 306 9985ft 206kts
02-Feb-19 18:04 36.306736 -121.071395 306 9657ft 215kts
02-Feb-19 18:05 36.348766 -121.123067 305 9121ft 204kts
02-Feb-19 18:06 36.387831 -121.172675 303 8640ft 201kts
02-Feb-19 18:07 36.426699 -121.222548 306 8099ft 200kts
02-Feb-19 18:08 36.465760 -121.270178 304 7483ft 191kts
02-Feb-19 18:09 36.502959 -121.317262 305 6666ft 189kts
02-Feb-19 18:10 36.531948 -121.369430 292 5588ft 183kts
02-Feb-19 18:11 36.559416 -121.421232 295 4899ft 164kts
02-Feb-19 18:12 36.587498 -121.462234 298 4442ft 155kts
02-Feb-19 18:13 36.612092 -121.507407 291 3756ft 160kts
02-Feb-19 18:14 36.636095 -121.553667 292 3170ft 159kts
02-Feb-19 18:15 36.659841 -121.598928 293 2806ft 149kts
02-Feb-19 18:16 36.669505 -121.645966 266 2322ft 139kts
02-Feb-19 18:17 36.673668 -121.693224 267 1404ft 133kts
02-Feb-19 18:18 36.674065 -121.732515 254 754ft 99kts
02-Feb-19 18:18 36.679387 -121.757677 304 130ft 85kts
02-Feb-19 18:20 36.680600 -121.763573 234 144ft 16kts
02-Feb-19 18:21 36.679947 -121.765609 298 140ft 0kts
02-Feb-19 18:21 36.679947 -121.765609 298 140ft 0kts
02-Feb-19 18:22 36.679947 -121.765609 298 140ft 0kts
02-Feb-19 18:23 36.679947 -121.765609 298 140ft 0kts
02-Feb-19 18:24 36.679948 -121.765611 298 140ft 0kts
02-Feb-19 18:25 36.679955 -121.765628 298 140ft 0kts

Navigation Log

Ident Type
Flight plan parsing failed, navigation log unavailable